Time;durP1;ratioP1;P1;durP2;ratioP2;P2;SDS_P1;SDS_P2;PMS_P1;PMS_P2;Temp;Humidity;BMP_temperature;BMP_pressure;BME280_temperature;BME280_humidity;BME280_pressure;Samples;Min_cycle;Max_cycle;Signal;HPM_P1;HPM_P2
2023/06/15 00:00:57;;;;;;;15.20;10.10;;;;;;;-128.00;-1.00;-1.00;102748;1263;1003702;-81
2023/06/15 00:03:42;;;;;;;14.60;9.40;;;;;;;-128.00;-1.00;-1.00;102770;1261;1047744;-81
2023/06/15 00:06:08;;;;;;;13.00;8.20;;;;;;;-128.00;-1.00;-1.00;105176;1260;1063146;-81
2023/06/15 00:08:34;;;;;;;12.80;8.60;;;;;;;-128.00;-1.00;-1.00;105215;1259;1004170;-80
2023/06/15 00:11:01;;;;;;;13.10;9.20;;;;;;;-128.00;-1.00;-1.00;105148;1260;1004568;-79
2023/06/15 00:13:27;;;;;;;12.90;9.30;;;;;;;-128.00;-1.00;-1.00;105175;1259;1005210;-81
2023/06/15 00:15:54;;;;;;;13.10;9.10;;;;;;;-128.00;-1.00;-1.00;105171;1263;1004024;-80
2023/06/15 00:18:20;;;;;;;13.80;8.70;;;;;;;-128.00;-1.00;-1.00;103259;1263;1003671;-79
2023/06/15 00:20:47;;;;;;;13.70;8.10;;;;;;;-128.00;-1.00;-1.00;102714;1261;1004841;-81
2023/06/15 00:23:17;;;;;;;12.20;9.10;;;;;;;-128.00;-1.00;-1.00;102752;1261;1004449;-81
2023/06/15 00:25:43;;;;;;;12.70;9.20;;;;;;;-128.00;-1.00;-1.00;102773;1263;1045134;-81
2023/06/15 00:28:09;;;;;;;15.20;9.70;;;;;;;-128.00;-1.00;-1.00;102764;1259;1005299;-81
2023/06/15 00:30:36;;;;;;;16.30;10.10;;;;;;;-128.00;-1.00;-1.00;102745;1260;1004101;-81
2023/06/15 00:33:02;;;;;;;14.60;9.20;;;;;;;-128.00;-1.00;-1.00;102862;1262;1005091;-81
2023/06/15 00:35:30;;;;;;;11.50;8.10;;;;;;;-128.00;-1.00;-1.00;102388;1260;1004768;-79
2023/06/15 00:37:56;;;;;;;13.90;9.30;;;;;;;-128.00;-1.00;-1.00;105235;1260;1004119;-80
2023/06/15 00:40:23;;;;;;;14.60;9.00;;;;;;;-128.00;-1.00;-1.00;105222;1260;1005143;-80
2023/06/15 00:42:49;;;;;;;13.30;8.30;;;;;;;-128.00;-1.00;-1.00;105182;1260;1004292;-81
2023/06/15 00:45:16;;;;;;;15.20;10.40;;;;;;;-128.00;-1.00;-1.00;105224;1260;1005574;-81
2023/06/15 00:47:43;;;;;;;12.70;9.20;;;;;;;-128.00;-1.00;-1.00;103880;1257;1004304;-79
2023/06/15 00:50:10;;;;;;;12.90;9.00;;;;;;;-128.00;-1.00;-1.00;102815;1259;1004671;-81
2023/06/15 00:52:37;;;;;;;13.60;8.70;;;;;;;-128.00;-1.00;-1.00;102770;1259;1004928;-79
2023/06/15 00:55:04;;;;;;;16.50;9.90;;;;;;;-128.00;-1.00;-1.00;102808;1260;1004374;-81
2023/06/15 00:57:32;;;;;;;15.70;8.60;;;;;;;-128.00;-1.00;-1.00;102183;1261;1004612;-81
2023/06/15 00:59:59;;;;;;;12.70;9.00;;;;;;;-128.00;-1.00;-1.00;102206;1263;1004429;-79
2023/06/15 01:02:28;;;;;;;13.10;8.30;;;;;;;-128.00;-1.00;-1.00;102818;1261;1004686;-81
2023/06/15 01:04:55;;;;;;;;;;;;;;;-128.00;-1.00;-1.00;102805;1262;1047341;-81
2023/06/15 01:07:27;;;;;;;12.50;7.70;;;;;;;-128.00;-1.00;-1.00;102738;1266;1004262;-81
2023/06/15 01:09:54;;;;;;;13.80;8.20;;;;;;;-128.00;-1.00;-1.00;102754;1259;1058818;-79
2023/06/15 01:12:21;;;;;;;12.90;7.30;;;;;;;-128.00;-1.00;-1.00;102818;1258;1003680;-82
2023/06/15 01:14:47;;;;;;;14.80;8.60;;;;;;;-128.00;-1.00;-1.00;102704;1260;1004787;-79
2023/06/15 01:17:13;;;;;;;14.40;10.00;;;;;;;-128.00;-1.00;-1.00;102790;1259;1003705;-79
2023/06/15 01:20:06;;;;;;;15.00;9.80;;;;;;;-128.00;-1.00;-1.00;102756;1263;1004209;-80
2023/06/15 01:22:55;;;;;;;12.90;9.20;;;;;;;-128.00;-1.00;-1.00;102694;1263;1059131;-81
2023/06/15 01:25:29;;;;;;;18.80;10.70;;;;;;;-128.00;-1.00;-1.00;102849;1260;1059369;-79
2023/06/15 01:27:58;;;;;;;13.10;8.30;;;;;;;-128.00;-1.00;-1.00;103630;1261;1045140;-79
2023/06/15 01:30:26;;;;;;;17.20;9.00;;;;;;;-128.00;-1.00;-1.00;102809;1264;1046433;-79
2023/06/15 01:32:53;;;;;;;19.60;11.10;;;;;;;-128.00;-1.00;-1.00;102777;1260;1005278;-79
2023/06/15 01:35:20;;;;;;;16.50;8.90;;;;;;;-128.00;-1.00;-1.00;103091;1260;1003668;-80
2023/06/15 01:37:46;;;;;;;13.10;8.60;;;;;;;-128.00;-1.00;-1.00;105178;1261;1005212;-80
2023/06/15 01:40:12;;;;;;;13.80;8.80;;;;;;;-128.00;-1.00;-1.00;104207;1261;1003588;-79
2023/06/15 01:42:39;;;;;;;15.70;9.80;;;;;;;-128.00;-1.00;-1.00;102738;1261;1004617;-79
2023/06/15 01:45:07;;;;;;;14.60;8.80;;;;;;;-128.00;-1.00;-1.00;102827;1259;1004522;-79
2023/06/15 01:47:33;;;;;;;13.30;9.80;;;;;;;-128.00;-1.00;-1.00;104005;1260;1003514;-79
2023/06/15 01:50:00;;;;;;;17.30;9.50;;;;;;;-128.00;-1.00;-1.00;102745;1264;1004263;-80
2023/06/15 01:52:26;;;;;;;16.00;10.40;;;;;;;-128.00;-1.00;-1.00;102711;1264;1004845;-79
2023/06/15 01:54:53;;;;;;;16.30;9.80;;;;;;;-128.00;-1.00;-1.00;102770;1259;1005030;-79
2023/06/15 01:57:20;;;;;;;16.40;9.90;;;;;;;-128.00;-1.00;-1.00;102666;1259;1004258;-81
2023/06/15 01:59:46;;;;;;;15.00;10.30;;;;;;;-128.00;-1.00;-1.00;102260;1260;1004929;-81
2023/06/15 02:02:13;;;;;;;19.80;10.40;;;;;;;-128.00;-1.00;-1.00;102177;1260;1004908;-80
2023/06/15 02:04:39;;;;;;;15.60;9.30;;;;;;;-128.00;-1.00;-1.00;105123;1258;1005326;-81
2023/06/15 02:21:15;;;;;;;16.70;9.20;;;;;;;-128.00;-1.00;-1.00;104234;1259;1045026;-79
2023/06/15 02:23:42;;;;;;;15.50;9.90;;;;;;;-128.00;-1.00;-1.00;102047;1261;1004881;-80
2023/06/15 02:26:08;;;;;;;16.30;9.70;;;;;;;-128.00;-1.00;-1.00;102649;1264;1006844;-78
2023/06/15 02:28:35;;;;;;;17.20;10.10;;;;;;;-128.00;-1.00;-1.00;104526;1259;1006363;-80
2023/06/15 02:31:01;;;;;;;16.40;9.60;;;;;;;-128.00;-1.00;-1.00;104617;1259;1004259;-78
2023/06/15 02:33:28;;;;;;;17.90;10.90;;;;;;;-128.00;-1.00;-1.00;102252;1260;1005462;-78
2023/06/15 02:35:54;;;;;;;20.20;10.80;;;;;;;-128.00;-1.00;-1.00;103313;1259;1003486;-81
2023/06/15 02:42:41;;;;;;;21.30;12.10;;;;;;;-128.00;-1.00;-1.00;104238;1259;1060505;-81
2023/06/15 02:48:51;;;;;;;23.50;12.60;;;;;;;-128.00;-1.00;-1.00;102776;1260;1048664;-79
2023/06/15 02:51:19;;;;;;;20.20;11.50;;;;;;;-128.00;-1.00;-1.00;102723;1260;1047064;-79
2023/06/15 02:53:47;;;;;;;20.00;12.60;;;;;;;-128.00;-1.00;-1.00;102979;1259;1003988;-81
2023/06/15 03:04:29;;;;;;;17.10;9.10;;;;;;;-128.00;-1.00;-1.00;102715;1263;1046303;-79
2023/06/15 03:07:16;;;;;;;18.40;9.80;;;;;;;-128.00;-1.00;-1.00;102771;1264;1047703;-79
2023/06/15 03:09:45;;;;;;;16.30;10.20;;;;;;;-128.00;-1.00;-1.00;102532;1261;1064124;-81
2023/06/15 03:12:12;;;;;;;20.20;11.60;;;;;;;-128.00;-1.00;-1.00;102788;1259;1061023;-81
2023/06/15 03:14:38;;;;;;;20.30;11.70;;;;;;;-128.00;-1.00;-1.00;102693;1264;1003742;-79
2023/06/15 03:17:08;;;;;;;19.60;11.20;;;;;;;-128.00;-1.00;-1.00;102947;1260;1004711;-81
2023/06/15 03:19:35;;;;;;;18.70;10.90;;;;;;;-128.00;-1.00;-1.00;102753;1260;1049295;-80
2023/06/15 03:22:02;;;;;;;16.70;10.50;;;;;;;-128.00;-1.00;-1.00;102799;1259;1004248;-79
2023/06/15 03:24:30;;;;;;;17.70;11.20;;;;;;;-128.00;-1.00;-1.00;102865;1259;1004420;-81
2023/06/15 03:27:01;;;;;;;19.80;11.00;;;;;;;-128.00;-1.00;-1.00;102229;1263;1003380;-81
2023/06/15 03:29:29;;;;;;;17.70;11.40;;;;;;;-128.00;-1.00;-1.00;102865;1261;1047259;-81
2023/06/15 03:31:56;;;;;;;15.60;10.70;;;;;;;-128.00;-1.00;-1.00;103216;1261;1003922;-79
2023/06/15 03:34:24;;;;;;;15.20;10.60;;;;;;;-128.00;-1.00;-1.00;102427;1259;1004073;-81
2023/06/15 03:36:52;;;;;;;16.60;10.50;;;;;;;-128.00;-1.00;-1.00;102485;1263;1057587;-79
2023/06/15 03:39:18;;;;;;;17.60;12.60;;;;;;;-128.00;-1.00;-1.00;102860;1259;1005597;-79
2023/06/15 03:41:45;;;;;;;19.00;11.70;;;;;;;-128.00;-1.00;-1.00;103339;1259;1003959;-79
2023/06/15 03:44:12;;;;;;;17.80;12.40;;;;;;;-128.00;-1.00;-1.00;102783;1259;1004035;-79
2023/06/15 03:46:38;;;;;;;18.40;12.70;;;;;;;-128.00;-1.00;-1.00;102859;1259;1005320;-81
2023/06/15 03:49:05;;;;;;;18.80;11.20;;;;;;;-128.00;-1.00;-1.00;103050;1259;1004143;-81
2023/06/15 03:51:32;;;;;;;16.60;10.90;;;;;;;-128.00;-1.00;-1.00;102790;1263;1004566;-82
2023/06/15 03:53:59;;;;;;;17.70;10.90;;;;;;;-128.00;-1.00;-1.00;102808;1260;1004691;-79
2023/06/15 03:56:26;;;;;;;14.10;10.10;;;;;;;-128.00;-1.00;-1.00;102785;1259;1004914;-82
2023/06/15 03:58:53;;;;;;;19.10;12.40;;;;;;;-128.00;-1.00;-1.00;102648;1259;1004511;-79
2023/06/15 04:01:22;;;;;;;17.60;10.20;;;;;;;-128.00;-1.00;-1.00;102806;1259;1005011;-80
2023/06/15 04:03:48;;;;;;;19.60;10.00;;;;;;;-128.00;-1.00;-1.00;102731;1259;1060190;-81
2023/06/15 04:06:16;;;;;;;16.60;10.70;;;;;;;-128.00;-1.00;-1.00;103132;1259;1004111;-81
2023/06/15 04:08:43;;;;;;;16.50;10.70;;;;;;;-128.00;-1.00;-1.00;102718;1259;1004160;-79
2023/06/15 04:11:10;;;;;;;15.60;10.30;;;;;;;-128.00;-1.00;-1.00;102832;1260;1004902;-79
2023/06/15 04:13:36;;;;;;;19.10;10.70;;;;;;;-128.00;-1.00;-1.00;102681;1260;1004997;-79
2023/06/15 04:16:03;;;;;;;20.90;10.50;;;;;;;-128.00;-1.00;-1.00;102859;1262;1004714;-80
2023/06/15 04:18:30;;;;;;;14.60;10.60;;;;;;;-128.00;-1.00;-1.00;102748;1261;1005062;-79
2023/06/15 04:20:56;;;;;;;16.10;9.60;;;;;;;-128.00;-1.00;-1.00;102778;1260;1005101;-80
2023/06/15 04:23:23;;;;;;;16.90;9.90;;;;;;;-128.00;-1.00;-1.00;102817;1260;1004669;-79
2023/06/15 04:25:49;;;;;;;16.90;10.70;;;;;;;-128.00;-1.00;-1.00;102815;1259;1004373;-80
2023/06/15 04:28:16;;;;;;;17.10;9.40;;;;;;;-128.00;-1.00;-1.00;102762;1263;1004372;-82
2023/06/15 04:30:46;;;;;;;17.30;9.70;;;;;;;-128.00;-1.00;-1.00;102689;1264;1004816;-81
2023/06/15 04:33:16;;;;;;;15.70;10.20;;;;;;;-128.00;-1.00;-1.00;102868;1260;1047008;-81
2023/06/15 04:35:45;;;;;;;16.10;9.80;;;;;;;-128.00;-1.00;-1.00;102820;1262;1062767;-79
2023/06/15 04:38:12;;;;;;;15.20;10.00;;;;;;;-128.00;-1.00;-1.00;102636;1260;1058038;-81
2023/06/15 04:40:41;;;;;;;16.50;11.00;;;;;;;-128.00;-1.00;-1.00;102804;1259;1004779;-82
2023/06/15 04:43:08;;;;;;;16.40;11.10;;;;;;;-128.00;-1.00;-1.00;103457;1259;1046003;-79
2023/06/15 04:45:35;;;;;;;16.40;11.20;;;;;;;-128.00;-1.00;-1.00;102866;1260;1005301;-80
2023/06/15 04:48:02;;;;;;;19.70;11.60;;;;;;;-128.00;-1.00;-1.00;102863;1259;1006426;-80
2023/06/15 04:50:30;;;;;;;15.10;9.90;;;;;;;-128.00;-1.00;-1.00;102849;1259;1003664;-81
2023/06/15 04:52:57;;;;;;;16.00;10.70;;;;;;;-128.00;-1.00;-1.00;102804;1260;1004109;-82
2023/06/15 04:55:23;;;;;;;16.70;11.10;;;;;;;-128.00;-1.00;-1.00;103108;1259;1004448;-78
2023/06/15 04:57:50;;;;;;;13.60;11.00;;;;;;;-128.00;-1.00;-1.00;102838;1259;1004867;-80
2023/06/15 05:00:17;;;;;;;20.50;12.30;;;;;;;-128.00;-1.00;-1.00;102276;1260;1004176;-82
2023/06/15 05:02:43;;;;;;;17.00;10.80;;;;;;;-128.00;-1.00;-1.00;102748;1259;1004639;-80
2023/06/15 05:05:11;;;;;;;21.50;11.60;;;;;;;-128.00;-1.00;-1.00;102661;1259;1005150;-77
2023/06/15 05:07:37;;;;;;;12.00;9.70;;;;;;;-128.00;-1.00;-1.00;102284;1260;1004601;-78
2023/06/15 05:10:05;;;;;;;13.50;8.60;;;;;;;-128.00;-1.00;-1.00;102220;1263;1004454;-78
2023/06/15 05:12:31;;;;;;;14.90;8.80;;;;;;;-128.00;-1.00;-1.00;102088;1265;1004215;-80
2023/06/15 05:14:58;;;;;;;11.30;8.40;;;;;;;-128.00;-1.00;-1.00;102180;1259;1004477;-80
2023/06/15 05:17:25;;;;;;;12.40;8.00;;;;;;;-128.00;-1.00;-1.00;102819;1258;1004564;-80
2023/06/15 05:19:51;;;;;;;14.10;9.00;;;;;;;-128.00;-1.00;-1.00;102348;1260;1004576;-78
2023/06/15 05:22:18;;;;;;;13.60;8.50;;;;;;;-128.00;-1.00;-1.00;102174;1263;1004775;-80
2023/06/15 05:24:44;;;;;;;10.90;8.70;;;;;;;-128.00;-1.00;-1.00;102156;1259;1004277;-78
2023/06/15 05:27:11;;;;;;;13.40;8.60;;;;;;;-128.00;-1.00;-1.00;102294;1259;1005304;-78
2023/06/15 05:29:39;;;;;;;16.40;9.00;;;;;;;-128.00;-1.00;-1.00;102098;1261;1004573;-80
2023/06/15 05:32:06;;;;;;;12.10;8.30;;;;;;;-128.00;-1.00;-1.00;102278;1263;1004199;-78
2023/06/15 05:34:33;;;;;;;12.10;9.10;;;;;;;-128.00;-1.00;-1.00;102280;1259;1005211;-78
2023/06/15 05:36:59;;;;;;;13.60;9.50;;;;;;;-128.00;-1.00;-1.00;104177;1259;1005058;-81
2023/06/15 05:39:26;;;;;;;12.10;9.20;;;;;;;-128.00;-1.00;-1.00;102411;1263;1003285;-80
2023/06/15 05:41:53;;;;;;;13.60;9.50;;;;;;;-128.00;-1.00;-1.00;102263;1258;1004775;-80
2023/06/15 05:44:19;;;;;;;15.20;9.70;;;;;;;-128.00;-1.00;-1.00;102959;1258;1003608;-78
2023/06/15 05:46:46;;;;;;;17.30;10.40;;;;;;;-128.00;-1.00;-1.00;102855;1259;1004056;-79
2023/06/15 05:49:12;;;;;;;14.30;9.70;;;;;;;-128.00;-1.00;-1.00;102209;1259;1004063;-80
2023/06/15 05:51:39;;;;;;;12.80;9.50;;;;;;;-128.00;-1.00;-1.00;104216;1259;1004465;-80
2023/06/15 05:54:05;;;;;;;17.20;9.10;;;;;;;-128.00;-1.00;-1.00;103670;1261;1004788;-78
2023/06/15 05:56:32;;;;;;;13.80;9.00;;;;;;;-128.00;-1.00;-1.00;102672;1261;1003816;-78
2023/06/15 05:58:58;;;;;;;11.60;9.00;;;;;;;-128.00;-1.00;-1.00;102926;1259;1004676;-81
2023/06/15 06:01:25;;;;;;;15.00;10.20;;;;;;;-128.00;-1.00;-1.00;103943;1259;1004388;-80
2023/06/15 06:03:51;;;;;;;13.50;9.40;;;;;;;-128.00;-1.00;-1.00;104366;1259;1005100;-78
2023/06/15 06:06:18;;;;;;;14.20;9.10;;;;;;;-128.00;-1.00;-1.00;102077;1259;1003616;-81
2023/06/15 06:08:45;;;;;;;12.50;9.00;;;;;;;-128.00;-1.00;-1.00;102265;1259;1004442;-81
2023/06/15 06:11:12;;;;;;;13.20;8.50;;;;;;;-128.00;-1.00;-1.00;103376;1260;1004425;-78
2023/06/15 06:13:39;;;;;;;12.50;9.80;;;;;;;-128.00;-1.00;-1.00;102784;1259;1005986;-80
2023/06/15 06:16:05;;;;;;;13.80;8.70;;;;;;;-128.00;-1.00;-1.00;103195;1257;1003804;-79
2023/06/15 06:18:32;;;;;;;13.10;9.90;;;;;;;-128.00;-1.00;-1.00;105194;1259;1004078;-79
2023/06/15 06:20:58;;;;;;;13.10;10.10;;;;;;;-128.00;-1.00;-1.00;105091;1261;1004947;-81
2023/06/15 06:23:25;;;;;;;13.30;9.20;;;;;;;-128.00;-1.00;-1.00;105121;1259;1004734;-81
2023/06/15 06:25:51;;;;;;;13.10;9.20;;;;;;;-128.00;-1.00;-1.00;102957;1259;1004743;-79
2023/06/15 06:28:18;;;;;;;11.30;9.40;;;;;;;-128.00;-1.00;-1.00;103233;1262;1004521;-82
2023/06/15 06:30:45;;;;;;;12.60;8.80;;;;;;;-128.00;-1.00;-1.00;103201;1259;1004616;-79
2023/06/15 06:33:11;;;;;;;10.80;7.80;;;;;;;-128.00;-1.00;-1.00;103195;1260;1004127;-79
2023/06/15 06:35:38;;;;;;;13.10;9.70;;;;;;;-128.00;-1.00;-1.00;103381;1259;1003793;-79
2023/06/15 06:38:04;;;;;;;11.40;8.80;;;;;;;-128.00;-1.00;-1.00;103511;1259;1004631;-81
2023/06/15 06:40:31;;;;;;;9.40;7.90;;;;;;;-128.00;-1.00;-1.00;102512;1263;1005667;-81
2023/06/15 06:42:57;;;;;;;12.50;9.40;;;;;;;-128.00;-1.00;-1.00;102272;1259;1003548;-79
2023/06/15 06:45:24;;;;;;;12.30;8.70;;;;;;;-128.00;-1.00;-1.00;103010;1259;1004577;-79
2023/06/15 06:47:50;;;;;;;16.60;10.20;;;;;;;-128.00;-1.00;-1.00;103053;1259;1004857;-79
2023/06/15 06:50:17;;;;;;;10.80;8.10;;;;;;;-128.00;-1.00;-1.00;102826;1259;1005199;-79
2023/06/15 06:52:43;;;;;;;11.00;7.90;;;;;;;-128.00;-1.00;-1.00;102914;1259;1004476;-80
2023/06/15 06:55:10;;;;;;;11.80;8.70;;;;;;;-128.00;-1.00;-1.00;102838;1259;1004717;-79
2023/06/15 06:57:36;;;;;;;12.80;9.30;;;;;;;-128.00;-1.00;-1.00;102865;1263;1005709;-78
2023/06/15 07:00:03;;;;;;;14.20;9.00;;;;;;;-128.00;-1.00;-1.00;102841;1259;1004438;-81
2023/06/15 07:02:32;;;;;;;12.10;8.30;;;;;;;-128.00;-1.00;-1.00;102943;1259;1004454;-81
2023/06/15 07:04:58;;;;;;;12.20;8.80;;;;;;;-128.00;-1.00;-1.00;102892;1259;1004907;-80
2023/06/15 07:07:25;;;;;;;11.30;8.60;;;;;;;-128.00;-1.00;-1.00;102889;1260;1005362;-81
2023/06/15 07:09:52;;;;;;;11.00;8.20;;;;;;;-128.00;-1.00;-1.00;102703;1259;1004752;-78
2023/06/15 07:12:18;;;;;;;9.80;8.00;;;;;;;-128.00;-1.00;-1.00;104069;1259;1005023;-79
2023/06/15 07:14:45;;;;;;;8.80;7.30;;;;;;;-128.00;-1.00;-1.00;105150;1257;1004017;-81
2023/06/15 07:17:12;;;;;;;11.70;7.10;;;;;;;-128.00;-1.00;-1.00;105149;1258;1004451;-79
2023/06/15 07:19:38;;;;;;;10.10;7.00;;;;;;;-128.00;-1.00;-1.00;104969;1259;1004566;-82
2023/06/15 07:22:05;;;;;;;11.10;7.90;;;;;;;-128.00;-1.00;-1.00;103209;1258;1007489;-81
2023/06/15 07:24:32;;;;;;;11.70;8.00;;;;;;;-128.00;-1.00;-1.00;103148;1259;1004736;-81
2023/06/15 07:26:58;;;;;;;8.40;7.50;;;;;;;-128.00;-1.00;-1.00;103147;1260;1003725;-81
2023/06/15 07:29:25;;;;;;;9.30;6.40;;;;;;;-128.00;-1.00;-1.00;102990;1263;1006599;-81
2023/06/15 07:31:51;;;;;;;11.10;6.70;;;;;;;-128.00;-1.00;-1.00;103135;1260;1004075;-79
2023/06/15 07:34:18;;;;;;;10.80;7.10;;;;;;;-128.00;-1.00;-1.00;102912;1259;1005001;-78
2023/06/15 07:36:45;;;;;;;8.10;6.80;;;;;;;-128.00;-1.00;-1.00;102947;1260;1004591;-81
2023/06/15 07:39:12;;;;;;;7.70;6.50;;;;;;;-128.00;-1.00;-1.00;102938;1259;1003976;-80
2023/06/15 07:41:39;;;;;;;12.50;8.20;;;;;;;-128.00;-1.00;-1.00;102753;1259;1004499;-79
2023/06/15 07:44:05;;;;;;;7.90;5.90;;;;;;;-128.00;-1.00;-1.00;102866;1259;1004445;-79
2023/06/15 07:46:32;;;;;;;8.10;6.30;;;;;;;-128.00;-1.00;-1.00;102795;1263;1004597;-82
2023/06/15 07:48:58;;;;;;;7.80;6.60;;;;;;;-128.00;-1.00;-1.00;102339;1258;1004068;-81
2023/06/15 07:51:25;;;;;;;7.40;5.90;;;;;;;-128.00;-1.00;-1.00;103020;1260;1004913;-79
2023/06/15 07:53:51;;;;;;;8.60;6.00;;;;;;;-128.00;-1.00;-1.00;102835;1259;1004887;-79
2023/06/15 07:56:17;;;;;;;8.90;7.00;;;;;;;-128.00;-1.00;-1.00;102837;1258;1003916;-79
2023/06/15 07:58:44;;;;;;;7.80;7.00;;;;;;;-128.00;-1.00;-1.00;102888;1258;1005029;-82
2023/06/15 08:01:10;;;;;;;7.70;6.30;;;;;;;-128.00;-1.00;-1.00;102819;1259;1004460;-81
2023/06/15 08:03:37;;;;;;;6.90;6.10;;;;;;;-128.00;-1.00;-1.00;103171;1257;1004792;-82
2023/06/15 08:06:03;;;;;;;8.60;6.00;;;;;;;-128.00;-1.00;-1.00;105185;1259;1004077;-79
2023/06/15 08:08:30;;;;;;;6.40;5.50;;;;;;;-128.00;-1.00;-1.00;104777;1258;1004885;-82
2023/06/15 08:10:57;;;;;;;9.90;5.80;;;;;;;-128.00;-1.00;-1.00;102938;1259;1005276;-79
2023/06/15 08:13:23;;;;;;;9.90;5.90;;;;;;;-128.00;-1.00;-1.00;102853;1259;1005983;-81
2023/06/15 08:15:50;;;;;;;7.50;6.00;;;;;;;-128.00;-1.00;-1.00;102904;1259;1005080;-79
2023/06/15 08:18:16;;;;;;;8.70;6.80;;;;;;;-128.00;-1.00;-1.00;102751;1259;1005488;-79
2023/06/15 08:20:43;;;;;;;9.40;5.80;;;;;;;-128.00;-1.00;-1.00;102825;1259;1004154;-81
2023/06/15 08:23:10;;;;;;;8.50;6.70;;;;;;;-128.00;-1.00;-1.00;102828;1259;1005427;-81
2023/06/15 08:25:36;;;;;;;6.80;5.70;;;;;;;-128.00;-1.00;-1.00;102741;1263;1004287;-79
2023/06/15 08:28:03;;;;;;;7.00;5.60;;;;;;;-128.00;-1.00;-1.00;102721;1265;1004012;-82
2023/06/15 08:30:30;;;;;;;7.70;5.90;;;;;;;-128.00;-1.00;-1.00;102877;1262;1004216;-78
2023/06/15 08:32:56;;;;;;;5.70;4.90;;;;;;;-128.00;-1.00;-1.00;102844;1263;1004225;-82
2023/06/15 08:35:23;;;;;;;6.00;5.30;;;;;;;-128.00;-1.00;-1.00;102290;1263;1005205;-82
2023/06/15 08:37:50;;;;;;;8.20;5.30;;;;;;;-128.00;-1.00;-1.00;102864;1263;1004791;-81
2023/06/15 08:40:16;;;;;;;8.20;5.40;;;;;;;-128.00;-1.00;-1.00;102874;1259;1004424;-82
2023/06/15 08:42:43;;;;;;;7.10;5.40;;;;;;;-128.00;-1.00;-1.00;102916;1257;1007520;-78
2023/06/15 08:45:09;;;;;;;8.20;5.30;;;;;;;-128.00;-1.00;-1.00;103054;1259;1004536;-79
2023/06/15 08:47:36;;;;;;;6.20;4.90;;;;;;;-128.00;-1.00;-1.00;103155;1259;1004766;-79
2023/06/15 08:50:03;;;;;;;5.80;5.00;;;;;;;-128.00;-1.00;-1.00;103316;1263;1004765;-79
2023/06/15 08:52:30;;;;;;;5.50;4.80;;;;;;;-128.00;-1.00;-1.00;103124;1259;1004657;-83
2023/06/15 08:54:57;;;;;;;5.00;4.50;;;;;;;-128.00;-1.00;-1.00;103114;1257;1004723;-82
2023/06/15 08:57:23;;;;;;;9.10;4.40;;;;;;;-128.00;-1.00;-1.00;103091;1262;1005302;-82
2023/06/15 08:59:50;;;;;;;7.60;4.60;;;;;;;-128.00;-1.00;-1.00;102847;1259;1004002;-79
2023/06/15 09:02:23;;;;;;;6.10;4.50;;;;;;;-128.00;-1.00;-1.00;102868;1259;1004187;-82
2023/06/15 09:04:53;;;;;;;5.40;4.90;;;;;;;-128.00;-1.00;-1.00;102993;1259;1061981;-82
2023/06/15 09:07:20;;;;;;;7.00;5.40;;;;;;;-128.00;-1.00;-1.00;103092;1259;1058884;-82
2023/06/15 09:10:08;;;;;;;5.60;4.90;;;;;;;-128.00;-1.00;-1.00;103074;1259;1004573;-82
2023/06/15 09:12:34;;;;;;;6.50;4.90;;;;;;;-128.00;-1.00;-1.00;103083;1263;1044028;-82
2023/06/15 09:15:01;;;;;;;6.20;5.20;;;;;;;-128.00;-1.00;-1.00;102916;1259;1004540;-79
2023/06/15 09:17:28;;;;;;;8.30;4.60;;;;;;;-128.00;-1.00;-1.00;103077;1259;1004457;-82
2023/06/15 09:19:54;;;;;;;6.20;4.80;;;;;;;-128.00;-1.00;-1.00;103074;1259;1004112;-79
2023/06/15 09:22:21;;;;;;;6.80;4.90;;;;;;;-128.00;-1.00;-1.00;102800;1259;1004051;-82
2023/06/15 09:24:48;;;;;;;5.90;5.20;;;;;;;-128.00;-1.00;-1.00;102957;1259;1003974;-79
2023/06/15 09:27:18;;;;;;;6.10;5.60;;;;;;;-128.00;-1.00;-1.00;102920;1259;1004070;-79
2023/06/15 09:30:05;;;;;;;8.30;5.80;;;;;;;-128.00;-1.00;-1.00;102874;1259;1065287;-79
2023/06/15 09:32:31;;;;;;;6.70;6.00;;;;;;;-128.00;-1.00;-1.00;104520;1262;1056793;-83
2023/06/15 09:34:58;;;;;;;6.40;5.30;;;;;;;-128.00;-1.00;-1.00;102843;1259;1004100;-82
2023/06/15 09:37:28;;;;;;;5.90;5.10;;;;;;;-128.00;-1.00;-1.00;102920;1260;1003583;-83
2023/06/15 09:39:54;;;;;;;7.60;5.20;;;;;;;-128.00;-1.00;-1.00;102746;1259;1047155;-82
2023/06/15 09:42:27;;;;;;;6.60;6.00;;;;;;;-128.00;-1.00;-1.00;102820;1262;1004715;-79
2023/06/15 09:44:54;;;;;;;10.40;6.30;;;;;;;-128.00;-1.00;-1.00;102833;1259;1057105;-79
2023/06/15 09:47:21;;;;;;;7.00;6.00;;;;;;;-128.00;-1.00;-1.00;102736;1259;1004765;-80
2023/06/15 09:49:48;;;;;;;6.00;5.30;;;;;;;-128.00;-1.00;-1.00;102650;1260;1004035;-80
2023/06/15 09:52:14;;;;;;;5.70;4.80;;;;;;;-128.00;-1.00;-1.00;102854;1258;1004659;-80
2023/06/15 09:54:41;;;;;;;7.00;5.40;;;;;;;-128.00;-1.00;-1.00;102810;1262;1004123;-80
2023/06/15 09:57:08;;;;;;;9.00;5.60;;;;;;;-128.00;-1.00;-1.00;105182;1259;1003164;-83
2023/06/15 09:59:34;;;;;;;5.50;5.00;;;;;;;-128.00;-1.00;-1.00;103186;1259;1004825;-82
2023/06/15 10:02:01;;;;;;;6.40;4.70;;;;;;;-128.00;-1.00;-1.00;102875;1262;1005358;-82
2023/06/15 10:04:32;;;;;;;8.70;5.20;;;;;;;-128.00;-1.00;-1.00;102855;1259;1004422;-82
2023/06/15 10:07:01;;;;;;;5.20;4.70;;;;;;;-128.00;-1.00;-1.00;102866;1263;1064752;-80
2023/06/15 10:09:31;;;;;;;6.00;5.00;;;;;;;-128.00;-1.00;-1.00;102963;1260;1058198;-80
2023/06/15 10:12:09;;;;;;;8.30;5.10;;;;;;;-128.00;-1.00;-1.00;105165;1259;1059240;-83
2023/06/15 10:14:38;;;;;;;6.20;4.80;;;;;;;-128.00;-1.00;-1.00;105120;1259;1044558;-82
2023/06/15 10:17:05;;;;;;;9.30;5.30;;;;;;;-128.00;-1.00;-1.00;103830;1260;1048398;-80
2023/06/15 10:19:32;;;;;;;8.30;5.90;;;;;;;-128.00;-1.00;-1.00;102873;1259;1003639;-83
2023/06/15 10:21:59;;;;;;;7.60;6.00;;;;;;;-128.00;-1.00;-1.00;102833;1259;1004107;-83
2023/06/15 10:24:25;;;;;;;7.00;5.50;;;;;;;-128.00;-1.00;-1.00;102779;1259;1004371;-80
2023/06/15 10:26:52;;;;;;;6.10;5.20;;;;;;;-128.00;-1.00;-1.00;102872;1259;1004865;-83
2023/06/15 10:29:21;;;;;;;6.30;5.30;;;;;;;-128.00;-1.00;-1.00;102990;1259;1005311;-80
2023/06/15 10:31:56;;;;;;;6.20;4.70;;;;;;;-128.00;-1.00;-1.00;102858;1260;1061902;-80
2023/06/15 10:34:25;;;;;;;7.60;4.60;;;;;;;-128.00;-1.00;-1.00;102906;1259;1058125;-83
2023/06/15 10:36:59;;;;;;;5.10;4.60;;;;;;;-128.00;-1.00;-1.00;102885;1259;1059414;-83
2023/06/15 10:39:36;;;;;;;6.40;5.10;;;;;;;-128.00;-1.00;-1.00;102779;1259;1047315;-83
2023/06/15 10:42:07;;;;;;;8.20;4.00;;;;;;;-128.00;-1.00;-1.00;102890;1259;1046992;-82
2023/06/15 10:44:33;;;;;;;5.00;3.50;;;;;;;-128.00;-1.00;-1.00;102809;1259;1062014;-84
2023/06/15 10:47:13;;;;;;;5.50;4.10;;;;;;;-128.00;-1.00;-1.00;102853;1259;1005089;-81
2023/06/15 10:49:49;;;;;;;5.00;4.30;;;;;;;-128.00;-1.00;-1.00;102780;1259;1063384;-81
2023/06/15 10:52:16;;;;;;;9.20;5.00;;;;;;;-128.00;-1.00;-1.00;102797;1259;1044569;-80
2023/06/15 10:54:43;;;;;;;4.70;4.30;;;;;;;-128.00;-1.00;-1.00;102691;1259;1004253;-83
2023/06/15 10:57:09;;;;;;;5.00;4.10;;;;;;;-128.00;-1.00;-1.00;102892;1258;1005872;-84
2023/06/15 10:59:47;;;;;;;6.00;4.10;;;;;;;-128.00;-1.00;-1.00;102912;1265;1005051;-84
2023/06/15 11:02:26;;;;;;;6.20;4.80;;;;;;;-128.00;-1.00;-1.00;105080;1259;1059373;-82
2023/06/15 11:04:52;;;;;;;4.80;4.30;;;;;;;-128.00;-1.00;-1.00;105127;1259;1044326;-83
2023/06/15 11:07:35;;;;;;;4.70;4.10;;;;;;;-128.00;-1.00;-1.00;103521;1263;1004510;-80
2023/06/15 11:10:27;;;;;;;5.20;4.70;;;;;;;-128.00;-1.00;-1.00;102859;1259;1063030;-81
2023/06/15 11:13:01;;;;;;;5.00;4.50;;;;;;;-128.00;-1.00;-1.00;102795;1259;1058598;-81
2023/06/15 11:15:33;;;;;;;6.10;4.40;;;;;;;-128.00;-1.00;-1.00;102794;1259;1059619;-81
2023/06/15 11:18:04;;;;;;;4.90;4.10;;;;;;;-128.00;-1.00;-1.00;102921;1259;1045770;-84
2023/06/15 11:20:37;;;;;;;4.70;3.60;;;;;;;-128.00;-1.00;-1.00;102982;1259;1049533;-80
2023/06/15 11:23:09;;;;;;;4.80;3.90;;;;;;;-128.00;-1.00;-1.00;102994;1260;1062194;-81
2023/06/15 11:25:42;;;;;;;7.40;3.90;;;;;;;-128.00;-1.00;-1.00;103013;1258;1059340;-83
2023/06/15 11:28:09;;;;;;;8.40;4.10;;;;;;;-128.00;-1.00;-1.00;104162;1260;1059818;-80
2023/06/15 11:30:38;;;;;;;6.10;3.60;;;;;;;-128.00;-1.00;-1.00;102793;1259;1004578;-83
2023/06/15 11:33:04;;;;;;;3.90;3.60;;;;;;;-128.00;-1.00;-1.00;103031;1262;1047940;-80
2023/06/15 11:35:31;;;;;;;3.70;3.30;;;;;;;-128.00;-1.00;-1.00;103115;1259;1004215;-83
2023/06/15 11:37:58;;;;;;;3.50;3.20;;;;;;;-128.00;-1.00;-1.00;102985;1260;1003848;-80
2023/06/15 11:40:25;;;;;;;4.50;4.10;;;;;;;-128.00;-1.00;-1.00;102838;1263;1006951;-80
2023/06/15 11:42:53;;;;;;;6.20;3.90;;;;;;;-128.00;-1.00;-1.00;102881;1263;1004310;-80
2023/06/15 11:45:20;;;;;;;6.10;3.90;;;;;;;-128.00;-1.00;-1.00;102954;1258;1004447;-80